sensor_id;sensor_type;location;lat;lon;timestamp;P1;durP1;ratioP1;P2;durP2;ratioP2
37655;SDS011;23498;50.958;3.124;2023-05-10T00:00:08;40.30;;;18.83;;
37655;SDS011;23498;50.958;3.124;2023-05-10T00:02:34;36.97;;;19.23;;
37655;SDS011;23498;50.958;3.124;2023-05-10T00:05:00;36.80;;;17.75;;
37655;SDS011;23498;50.958;3.124;2023-05-10T00:07:26;39.67;;;19.13;;
37655;SDS011;23498;50.958;3.124;2023-05-10T00:09:53;38.92;;;17.85;;
37655;SDS011;23498;50.958;3.124;2023-05-10T00:12:19;36.75;;;18.50;;
37655;SDS011;23498;50.958;3.124;2023-05-10T00:14:45;39.67;;;19.08;;
37655;SDS011;23498;50.958;3.124;2023-05-10T00:17:11;41.70;;;18.45;;
37655;SDS011;23498;50.958;3.124;2023-05-10T00:19:37;39.28;;;18.45;;
37655;SDS011;23498;50.958;3.124;2023-05-10T00:22:03;40.42;;;19.25;;
37655;SDS011;23498;50.958;3.124;2023-05-10T00:24:29;41.78;;;20.38;;
37655;SDS011;23498;50.958;3.124;2023-05-10T00:26:55;44.80;;;19.90;;
37655;SDS011;23498;50.958;3.124;2023-05-10T00:29:21;48.78;;;21.92;;
37655;SDS011;23498;50.958;3.124;2023-05-10T00:31:47;43.50;;;21.95;;
37655;SDS011;23498;50.958;3.124;2023-05-10T00:34:13;49.40;;;21.88;;
37655;SDS011;23498;50.958;3.124;2023-05-10T00:36:39;47.08;;;21.63;;
37655;SDS011;23498;50.958;3.124;2023-05-10T00:39:05;47.08;;;20.33;;
37655;SDS011;23498;50.958;3.124;2023-05-10T00:41:31;48.08;;;22.00;;
37655;SDS011;23498;50.958;3.124;2023-05-10T00:43:58;52.67;;;22.30;;
37655;SDS011;23498;50.958;3.124;2023-05-10T00:46:24;49.75;;;22.00;;
37655;SDS011;23498;50.958;3.124;2023-05-10T00:48:50;47.85;;;21.70;;
37655;SDS011;23498;50.958;3.124;2023-05-10T00:51:16;52.20;;;21.85;;
37655;SDS011;23498;50.958;3.124;2023-05-10T00:53:43;51.03;;;22.15;;
37655;SDS011;23498;50.958;3.124;2023-05-10T00:56:09;50.83;;;21.77;;
37655;SDS011;23498;50.958;3.124;2023-05-10T00:58:35;48.78;;;22.25;;
37655;SDS011;23498;50.958;3.124;2023-05-10T01:01:02;44.92;;;21.80;;
37655;SDS011;23498;50.958;3.124;2023-05-10T01:03:28;46.75;;;20.48;;
37655;SDS011;23498;50.958;3.124;2023-05-10T01:05:54;46.65;;;20.85;;
37655;SDS011;23498;50.958;3.124;2023-05-10T01:08:20;50.38;;;20.92;;
37655;SDS011;23498;50.958;3.124;2023-05-10T01:10:47;44.80;;;21.30;;
37655;SDS011;23498;50.958;3.124;2023-05-10T01:13:16;43.55;;;19.38;;
37655;SDS011;23498;50.958;3.124;2023-05-10T01:15:44;40.00;;;18.85;;
37655;SDS011;23498;50.958;3.124;2023-05-10T01:18:11;47.65;;;19.20;;
37655;SDS011;23498;50.958;3.124;2023-05-10T01:20:40;41.17;;;18.70;;
37655;SDS011;23498;50.958;3.124;2023-05-10T01:26:06;37.10;;;18.90;;
37655;SDS011;23498;50.958;3.124;2023-05-10T01:28:37;34.30;;;17.60;;
37655;SDS011;23498;50.958;3.124;2023-05-10T01:38:51;39.25;;;19.48;;
37655;SDS011;23498;50.958;3.124;2023-05-10T01:46:36;44.78;;;21.90;;
37655;SDS011;23498;50.958;3.124;2023-05-10T01:49:03;44.00;;;22.05;;
37655;SDS011;23498;50.958;3.124;2023-05-10T01:51:36;46.65;;;22.88;;
37655;SDS011;23498;50.958;3.124;2023-05-10T01:54:03;48.80;;;23.25;;
37655;SDS011;23498;50.958;3.124;2023-05-10T01:56:30;44.95;;;22.30;;
37655;SDS011;23498;50.958;3.124;2023-05-10T01:58:57;44.55;;;22.75;;
37655;SDS011;23498;50.958;3.124;2023-05-10T02:01:24;48.33;;;22.63;;
37655;SDS011;23498;50.958;3.124;2023-05-10T02:03:51;50.53;;;22.48;;
37655;SDS011;23498;50.958;3.124;2023-05-10T02:06:18;42.08;;;20.90;;
37655;SDS011;23498;50.958;3.124;2023-05-10T02:08:45;52.72;;;23.17;;
37655;SDS011;23498;50.958;3.124;2023-05-10T02:11:12;45.40;;;22.27;;
37655;SDS011;23498;50.958;3.124;2023-05-10T02:13:39;52.70;;;24.35;;
37655;SDS011;23498;50.958;3.124;2023-05-10T02:16:07;50.42;;;22.58;;
37655;SDS011;23498;50.958;3.124;2023-05-10T02:18:33;49.63;;;23.67;;
37655;SDS011;23498;50.958;3.124;2023-05-10T02:21:01;50.55;;;23.65;;
37655;SDS011;23498;50.958;3.124;2023-05-10T02:23:27;49.55;;;22.15;;
37655;SDS011;23498;50.958;3.124;2023-05-10T02:25:53;49.28;;;22.85;;
37655;SDS011;23498;50.958;3.124;2023-05-10T02:28:21;49.55;;;22.90;;
37655;SDS011;23498;50.958;3.124;2023-05-10T02:30:47;53.72;;;24.45;;
37655;SDS011;23498;50.958;3.124;2023-05-10T02:33:13;50.63;;;22.27;;
37655;SDS011;23498;50.958;3.124;2023-05-10T02:35:40;49.75;;;23.20;;
37655;SDS011;23498;50.958;3.124;2023-05-10T02:38:07;50.67;;;22.80;;
37655;SDS011;23498;50.958;3.124;2023-05-10T02:40:33;50.15;;;23.15;;
37655;SDS011;23498;50.958;3.124;2023-05-10T02:42:59;49.35;;;24.13;;
37655;SDS011;23498;50.958;3.124;2023-05-10T02:45:29;54.53;;;25.15;;
37655;SDS011;23498;50.958;3.124;2023-05-10T02:47:56;46.75;;;19.98;;
37655;SDS011;23498;50.958;3.124;2023-05-10T02:50:22;47.67;;;22.33;;
37655;SDS011;23498;50.958;3.124;2023-05-10T02:52:54;50.97;;;23.40;;
37655;SDS011;23498;50.958;3.124;2023-05-10T02:55:22;56.05;;;25.45;;
37655;SDS011;23498;50.958;3.124;2023-05-10T02:57:57;56.08;;;25.17;;
37655;SDS011;23498;50.958;3.124;2023-05-10T03:00:24;57.85;;;25.42;;
37655;SDS011;23498;50.958;3.124;2023-05-10T03:02:50;63.35;;;28.13;;
37655;SDS011;23498;50.958;3.124;2023-05-10T03:05:16;69.03;;;29.58;;
37655;SDS011;23498;50.958;3.124;2023-05-10T03:07:42;64.93;;;29.55;;
37655;SDS011;23498;50.958;3.124;2023-05-10T03:10:09;61.70;;;28.00;;
37655;SDS011;23498;50.958;3.124;2023-05-10T03:15:17;77.43;;;32.70;;
37655;SDS011;23498;50.958;3.124;2023-05-10T03:20:22;68.90;;;30.42;;
37655;SDS011;23498;50.958;3.124;2023-05-10T03:22:51;69.13;;;32.55;;
37655;SDS011;23498;50.958;3.124;2023-05-10T03:25:19;72.05;;;29.58;;
37655;SDS011;23498;50.958;3.124;2023-05-10T03:27:46;59.05;;;25.48;;
37655;SDS011;23498;50.958;3.124;2023-05-10T03:30:13;59.42;;;25.25;;
37655;SDS011;23498;50.958;3.124;2023-05-10T03:32:39;71.13;;;29.30;;
37655;SDS011;23498;50.958;3.124;2023-05-10T03:35:09;70.18;;;30.25;;
37655;SDS011;23498;50.958;3.124;2023-05-10T03:37:35;67.05;;;29.80;;
37655;SDS011;23498;50.958;3.124;2023-05-10T03:40:01;66.70;;;27.52;;
37655;SDS011;23498;50.958;3.124;2023-05-10T03:42:27;79.13;;;29.90;;
37655;SDS011;23498;50.958;3.124;2023-05-10T03:44:53;75.47;;;29.55;;
37655;SDS011;23498;50.958;3.124;2023-05-10T03:47:20;66.47;;;27.15;;
37655;SDS011;23498;50.958;3.124;2023-05-10T03:49:46;71.78;;;28.88;;
37655;SDS011;23498;50.958;3.124;2023-05-10T03:52:11;76.00;;;29.83;;
37655;SDS011;23498;50.958;3.124;2023-05-10T03:54:38;79.55;;;30.42;;
37655;SDS011;23498;50.958;3.124;2023-05-10T03:57:04;80.78;;;29.85;;
37655;SDS011;23498;50.958;3.124;2023-05-10T03:59:30;84.70;;;31.90;;
37655;SDS011;23498;50.958;3.124;2023-05-10T04:01:56;87.30;;;31.83;;
37655;SDS011;23498;50.958;3.124;2023-05-10T04:04:22;82.20;;;32.10;;
37655;SDS011;23498;50.958;3.124;2023-05-10T04:06:48;87.00;;;33.05;;
37655;SDS011;23498;50.958;3.124;2023-05-10T04:09:14;85.38;;;31.58;;
37655;SDS011;23498;50.958;3.124;2023-05-10T04:11:41;97.00;;;33.75;;
37655;SDS011;23498;50.958;3.124;2023-05-10T04:14:07;88.40;;;32.85;;
37655;SDS011;23498;50.958;3.124;2023-05-10T04:16:33;85.30;;;31.50;;
37655;SDS011;23498;50.958;3.124;2023-05-10T04:18:59;88.35;;;31.33;;
37655;SDS011;23498;50.958;3.124;2023-05-10T04:21:25;84.13;;;30.58;;
37655;SDS011;23498;50.958;3.124;2023-05-10T04:23:51;81.47;;;30.20;;
37655;SDS011;23498;50.958;3.124;2023-05-10T04:26:17;80.90;;;31.33;;
37655;SDS011;23498;50.958;3.124;2023-05-10T04:28:43;75.88;;;30.23;;
37655;SDS011;23498;50.958;3.124;2023-05-10T04:31:10;81.05;;;29.85;;
37655;SDS011;23498;50.958;3.124;2023-05-10T04:33:36;80.78;;;30.38;;
37655;SDS011;23498;50.958;3.124;2023-05-10T04:36:02;86.30;;;29.40;;
37655;SDS011;23498;50.958;3.124;2023-05-10T04:38:29;71.05;;;28.95;;
37655;SDS011;23498;50.958;3.124;2023-05-10T04:41:03;75.68;;;29.52;;
37655;SDS011;23498;50.958;3.124;2023-05-10T04:43:30;73.35;;;29.08;;
37655;SDS011;23498;50.958;3.124;2023-05-10T04:45:56;67.88;;;27.27;;
37655;SDS011;23498;50.958;3.124;2023-05-10T04:48:22;63.17;;;26.00;;
37655;SDS011;23498;50.958;3.124;2023-05-10T04:50:48;72.60;;;27.17;;
37655;SDS011;23498;50.958;3.124;2023-05-10T04:53:14;63.35;;;25.95;;
37655;SDS011;23498;50.958;3.124;2023-05-10T04:55:40;59.67;;;25.90;;
37655;SDS011;23498;50.958;3.124;2023-05-10T04:58:06;62.80;;;24.92;;
37655;SDS011;23498;50.958;3.124;2023-05-10T05:00:32;57.90;;;25.80;;
37655;SDS011;23498;50.958;3.124;2023-05-10T05:02:59;61.42;;;25.95;;
37655;SDS011;23498;50.958;3.124;2023-05-10T05:05:25;62.42;;;25.65;;
37655;SDS011;23498;50.958;3.124;2023-05-10T05:07:51;61.60;;;25.70;;
37655;SDS011;23498;50.958;3.124;2023-05-10T05:10:17;67.32;;;25.85;;
37655;SDS011;23498;50.958;3.124;2023-05-10T05:12:43;57.97;;;25.50;;
37655;SDS011;23498;50.958;3.124;2023-05-10T05:15:09;54.97;;;24.50;;
37655;SDS011;23498;50.958;3.124;2023-05-10T05:17:35;50.10;;;22.80;;
37655;SDS011;23498;50.958;3.124;2023-05-10T05:20:02;53.50;;;24.00;;
37655;SDS011;23498;50.958;3.124;2023-05-10T05:22:28;52.42;;;24.23;;
37655;SDS011;23498;50.958;3.124;2023-05-10T05:24:54;58.15;;;24.98;;
37655;SDS011;23498;50.958;3.124;2023-05-10T05:27:21;49.92;;;23.67;;
37655;SDS011;23498;50.958;3.124;2023-05-10T05:29:54;52.03;;;23.45;;
37655;SDS011;23498;50.958;3.124;2023-05-10T05:32:21;47.22;;;22.40;;
37655;SDS011;23498;50.958;3.124;2023-05-10T05:34:47;43.17;;;22.42;;
37655;SDS011;23498;50.958;3.124;2023-05-10T05:37:22;46.63;;;22.02;;
37655;SDS011;23498;50.958;3.124;2023-05-10T05:39:49;43.05;;;22.15;;
37655;SDS011;23498;50.958;3.124;2023-05-10T05:42:15;45.85;;;21.00;;
37655;SDS011;23498;50.958;3.124;2023-05-10T05:44:43;46.83;;;22.35;;
37655;SDS011;23498;50.958;3.124;2023-05-10T05:47:09;43.42;;;22.23;;
37655;SDS011;23498;50.958;3.124;2023-05-10T05:49:35;45.53;;;22.42;;
37655;SDS011;23498;50.958;3.124;2023-05-10T05:52:02;45.53;;;22.60;;
37655;SDS011;23498;50.958;3.124;2023-05-10T05:54:29;48.97;;;22.55;;
37655;SDS011;23498;50.958;3.124;2023-05-10T05:56:58;46.75;;;23.42;;
37655;SDS011;23498;50.958;3.124;2023-05-10T05:59:25;43.45;;;21.08;;
37655;SDS011;23498;50.958;3.124;2023-05-10T06:01:51;45.08;;;22.02;;
37655;SDS011;23498;50.958;3.124;2023-05-10T06:04:17;44.55;;;21.95;;
37655;SDS011;23498;50.958;3.124;2023-05-10T06:06:43;43.05;;;21.88;;
37655;SDS011;23498;50.958;3.124;2023-05-10T06:09:09;40.92;;;21.27;;
37655;SDS011;23498;50.958;3.124;2023-05-10T06:11:36;42.50;;;20.85;;
37655;SDS011;23498;50.958;3.124;2023-05-10T06:14:02;41.17;;;20.73;;
37655;SDS011;23498;50.958;3.124;2023-05-10T06:16:29;39.70;;;21.38;;
37655;SDS011;23498;50.958;3.124;2023-05-10T06:18:55;39.17;;;21.73;;
37655;SDS011;23498;50.958;3.124;2023-05-10T06:21:21;41.97;;;22.10;;
37655;SDS011;23498;50.958;3.124;2023-05-10T06:23:47;40.85;;;22.52;;
37655;SDS011;23498;50.958;3.124;2023-05-10T06:26:13;42.20;;;22.50;;
37655;SDS011;23498;50.958;3.124;2023-05-10T06:28:39;43.03;;;23.08;;
37655;SDS011;23498;50.958;3.124;2023-05-10T06:31:06;39.97;;;21.65;;
37655;SDS011;23498;50.958;3.124;2023-05-10T06:33:32;39.45;;;22.63;;
37655;SDS011;23498;50.958;3.124;2023-05-10T06:35:58;38.70;;;22.52;;
37655;SDS011;23498;50.958;3.124;2023-05-10T06:38:24;38.28;;;23.00;;
37655;SDS011;23498;50.958;3.124;2023-05-10T06:40:50;38.50;;;21.08;;
37655;SDS011;23498;50.958;3.124;2023-05-10T06:43:16;44.00;;;23.45;;
37655;SDS011;23498;50.958;3.124;2023-05-10T06:45:43;38.13;;;21.70;;
37655;SDS011;23498;50.958;3.124;2023-05-10T06:48:09;36.25;;;22.13;;
37655;SDS011;23498;50.958;3.124;2023-05-10T06:50:35;34.88;;;21.63;;
37655;SDS011;23498;50.958;3.124;2023-05-10T06:53:01;36.80;;;21.45;;
37655;SDS011;23498;50.958;3.124;2023-05-10T06:55:27;37.33;;;21.08;;
37655;SDS011;23498;50.958;3.124;2023-05-10T06:57:54;36.88;;;21.88;;
37655;SDS011;23498;50.958;3.124;2023-05-10T07:00:20;39.28;;;22.67;;
37655;SDS011;23498;50.958;3.124;2023-05-10T07:02:46;40.50;;;22.67;;
37655;SDS011;23498;50.958;3.124;2023-05-10T07:05:12;39.67;;;22.10;;
37655;SDS011;23498;50.958;3.124;2023-05-10T07:07:39;36.65;;;21.27;;
37655;SDS011;23498;50.958;3.124;2023-05-10T07:10:05;37.67;;;22.30;;
37655;SDS011;23498;50.958;3.124;2023-05-10T07:12:32;39.65;;;23.00;;
37655;SDS011;23498;50.958;3.124;2023-05-10T07:14:58;37.60;;;22.33;;
37655;SDS011;23498;50.958;3.124;2023-05-10T07:17:24;39.83;;;22.38;;
37655;SDS011;23498;50.958;3.124;2023-05-10T07:19:50;36.22;;;21.52;;
37655;SDS011;23498;50.958;3.124;2023-05-10T07:22:16;37.30;;;22.52;;
37655;SDS011;23498;50.958;3.124;2023-05-10T07:24:42;33.85;;;21.30;;
37655;SDS011;23498;50.958;3.124;2023-05-10T07:27:08;33.38;;;20.27;;
37655;SDS011;23498;50.958;3.124;2023-05-10T07:29:35;28.52;;;17.50;;
37655;SDS011;23498;50.958;3.124;2023-05-10T07:32:01;22.98;;;15.60;;
37655;SDS011;23498;50.958;3.124;2023-05-10T07:34:27;26.27;;;17.30;;
37655;SDS011;23498;50.958;3.124;2023-05-10T07:36:55;29.33;;;17.92;;
37655;SDS011;23498;50.958;3.124;2023-05-10T07:39:21;31.45;;;19.60;;
37655;SDS011;23498;50.958;3.124;2023-05-10T07:41:47;31.17;;;20.17;;
37655;SDS011;23498;50.958;3.124;2023-05-10T07:44:13;29.05;;;18.95;;
37655;SDS011;23498;50.958;3.124;2023-05-10T07:46:39;24.80;;;16.35;;
37655;SDS011;23498;50.958;3.124;2023-05-10T07:49:05;24.35;;;15.18;;
37655;SDS011;23498;50.958;3.124;2023-05-10T07:51:31;23.77;;;15.98;;
37655;SDS011;23498;50.958;3.124;2023-05-10T07:53:57;24.00;;;16.23;;
37655;SDS011;23498;50.958;3.124;2023-05-10T07:56:25;25.95;;;17.08;;
37655;SDS011;23498;50.958;3.124;2023-05-10T07:58:52;26.17;;;17.58;;
37655;SDS011;23498;50.958;3.124;2023-05-10T08:01:18;23.88;;;17.55;;
37655;SDS011;23498;50.958;3.124;2023-05-10T08:03:44;23.58;;;16.00;;
37655;SDS011;23498;50.958;3.124;2023-05-10T08:06:10;21.77;;;16.40;;
37655;SDS011;23498;50.958;3.124;2023-05-10T08:08:37;23.33;;;15.73;;
37655;SDS011;23498;50.958;3.124;2023-05-10T08:11:03;21.88;;;15.25;;
37655;SDS011;23498;50.958;3.124;2023-05-10T08:13:29;23.33;;;16.10;;
37655;SDS011;23498;50.958;3.124;2023-05-10T08:15:56;20.20;;;14.32;;
37655;SDS011;23498;50.958;3.124;2023-05-10T08:18:22;22.10;;;14.70;;
37655;SDS011;23498;50.958;3.124;2023-05-10T08:20:48;19.10;;;14.43;;
37655;SDS011;23498;50.958;3.124;2023-05-10T08:23:14;20.38;;;14.45;;
37655;SDS011;23498;50.958;3.124;2023-05-10T08:25:40;19.67;;;14.90;;
37655;SDS011;23498;50.958;3.124;2023-05-10T08:28:06;21.95;;;15.93;;
37655;SDS011;23498;50.958;3.124;2023-05-10T08:30:32;23.92;;;16.58;;
37655;SDS011;23498;50.958;3.124;2023-05-10T08:32:58;23.88;;;17.15;;
37655;SDS011;23498;50.958;3.124;2023-05-10T08:35:24;22.00;;;16.17;;
37655;SDS011;23498;50.958;3.124;2023-05-10T08:37:51;22.20;;;17.13;;
37655;SDS011;23498;50.958;3.124;2023-05-10T08:40:17;27.02;;;17.48;;
37655;SDS011;23498;50.958;3.124;2023-05-10T08:42:48;25.20;;;18.55;;
37655;SDS011;23498;50.958;3.124;2023-05-10T08:45:17;28.58;;;18.92;;
37655;SDS011;23498;50.958;3.124;2023-05-10T08:47:44;28.33;;;18.58;;
37655;SDS011;23498;50.958;3.124;2023-05-10T08:50:11;32.83;;;21.33;;
37655;SDS011;23498;50.958;3.124;2023-05-10T08:52:37;29.42;;;20.40;;
37655;SDS011;23498;50.958;3.124;2023-05-10T08:55:05;31.08;;;22.23;;
37655;SDS011;23498;50.958;3.124;2023-05-10T08:57:31;33.95;;;22.38;;
37655;SDS011;23498;50.958;3.124;2023-05-10T08:59:57;32.15;;;22.45;;
37655;SDS011;23498;50.958;3.124;2023-05-10T09:02:23;33.80;;;22.70;;
37655;SDS011;23498;50.958;3.124;2023-05-10T09:04:50;32.08;;;22.95;;
37655;SDS011;23498;50.958;3.124;2023-05-10T09:07:16;34.58;;;22.77;;
37655;SDS011;23498;50.958;3.124;2023-05-10T09:09:42;33.10;;;22.95;;
37655;SDS011;23498;50.958;3.124;2023-05-10T09:12:09;32.90;;;21.67;;
37655;SDS011;23498;50.958;3.124;2023-05-10T09:14:36;34.65;;;23.00;;
37655;SDS011;23498;50.958;3.124;2023-05-10T09:17:03;33.50;;;23.23;;
37655;SDS011;23498;50.958;3.124;2023-05-10T09:19:30;33.33;;;21.75;;
37655;SDS011;23498;50.958;3.124;2023-05-10T09:21:56;35.78;;;22.15;;
37655;SDS011;23498;50.958;3.124;2023-05-10T09:24:25;33.33;;;20.02;;
37655;SDS011;23498;50.958;3.124;2023-05-10T09:26:54;33.53;;;19.67;;
37655;SDS011;23498;50.958;3.124;2023-05-10T09:29:22;37.10;;;19.42;;
37655;SDS011;23498;50.958;3.124;2023-05-10T09:31:51;35.70;;;19.58;;
37655;SDS011;23498;50.958;3.124;2023-05-10T09:34:29;34.77;;;20.30;;
37655;SDS011;23498;50.958;3.124;2023-05-10T09:36:56;31.90;;;19.52;;
37655;SDS011;23498;50.958;3.124;2023-05-10T09:41:58;37.13;;;20.13;;
37655;SDS011;23498;50.958;3.124;2023-05-10T09:44:25;36.08;;;20.42;;
37655;SDS011;23498;50.958;3.124;2023-05-10T09:46:52;38.38;;;19.08;;
37655;SDS011;23498;50.958;3.124;2023-05-10T09:49:19;30.80;;;17.73;;
37655;SDS011;23498;50.958;3.124;2023-05-10T09:51:46;31.08;;;17.58;;
37655;SDS011;23498;50.958;3.124;2023-05-10T09:54:13;26.83;;;16.17;;
37655;SDS011;23498;50.958;3.124;2023-05-10T09:56:40;29.50;;;16.83;;
37655;SDS011;23498;50.958;3.124;2023-05-10T09:59:25;24.33;;;15.40;;
37655;SDS011;23498;50.958;3.124;2023-05-10T10:02:07;25.05;;;14.13;;
37655;SDS011;23498;50.958;3.124;2023-05-10T10:07:48;22.60;;;12.95;;
37655;SDS011;23498;50.958;3.124;2023-05-10T10:10:21;23.63;;;13.38;;
37655;SDS011;23498;50.958;3.124;2023-05-10T10:12:47;18.20;;;12.38;;
37655;SDS011;23498;50.958;3.124;2023-05-10T10:15:14;20.52;;;13.50;;
37655;SDS011;23498;50.958;3.124;2023-05-10T10:17:40;20.70;;;11.80;;
37655;SDS011;23498;50.958;3.124;2023-05-10T10:20:07;18.73;;;11.43;;
37655;SDS011;23498;50.958;3.124;2023-05-10T10:22:33;18.95;;;11.32;;
37655;SDS011;23498;50.958;3.124;2023-05-10T10:24:59;19.98;;;11.23;;
37655;SDS011;23498;50.958;3.124;2023-05-10T10:30:39;18.52;;;10.90;;
37655;SDS011;23498;50.958;3.124;2023-05-10T10:35:39;16.25;;;10.57;;
37655;SDS011;23498;50.958;3.124;2023-05-10T10:38:07;16.92;;;10.13;;
37655;SDS011;23498;50.958;3.124;2023-05-10T10:40:34;16.98;;;9.60;;
37655;SDS011;23498;50.958;3.124;2023-05-10T10:43:34;17.17;;;10.20;;
37655;SDS011;23498;50.958;3.124;2023-05-10T10:48:34;15.40;;;8.90;;
37655;SDS011;23498;50.958;3.124;2023-05-10T10:51:01;12.63;;;8.63;;
37655;SDS011;23498;50.958;3.124;2023-05-10T10:53:28;14.57;;;8.68;;
37655;SDS011;23498;50.958;3.124;2023-05-10T10:58:34;14.88;;;8.93;;
37655;SDS011;23498;50.958;3.124;2023-05-10T11:01:16;13.23;;;8.05;;
37655;SDS011;23498;50.958;3.124;2023-05-10T11:06:34;18.15;;;10.07;;
37655;SDS011;23498;50.958;3.124;2023-05-10T11:09:06;17.63;;;8.65;;
37655;SDS011;23498;50.958;3.124;2023-05-10T11:11:33;14.90;;;8.70;;
37655;SDS011;23498;50.958;3.124;2023-05-10T11:14:06;18.05;;;8.98;;
37655;SDS011;23498;50.958;3.124;2023-05-10T11:16:42;16.13;;;8.80;;
37655;SDS011;23498;50.958;3.124;2023-05-10T11:19:10;16.75;;;9.57;;
37655;SDS011;23498;50.958;3.124;2023-05-10T11:21:50;16.88;;;9.15;;
37655;SDS011;23498;50.958;3.124;2023-05-10T11:24:22;18.30;;;8.70;;
37655;SDS011;23498;50.958;3.124;2023-05-10T11:26:49;18.88;;;8.65;;
37655;SDS011;23498;50.958;3.124;2023-05-10T11:29:16;13.70;;;8.60;;
37655;SDS011;23498;50.958;3.124;2023-05-10T11:31:43;11.57;;;6.60;;
37655;SDS011;23498;50.958;3.124;2023-05-10T11:34:10;12.85;;;6.57;;
37655;SDS011;23498;50.958;3.124;2023-05-10T11:36:37;13.88;;;6.55;;
37655;SDS011;23498;50.958;3.124;2023-05-10T11:39:03;14.10;;;7.13;;
37655;SDS011;23498;50.958;3.124;2023-05-10T11:41:30;15.85;;;6.70;;
37655;SDS011;23498;50.958;3.124;2023-05-10T11:43:57;13.48;;;5.97;;
37655;SDS011;23498;50.958;3.124;2023-05-10T11:46:25;12.27;;;6.15;;
37655;SDS011;23498;50.958;3.124;2023-05-10T11:48:55;11.63;;;5.45;;
37655;SDS011;23498;50.958;3.124;2023-05-10T11:51:22;13.98;;;6.00;;
37655;SDS011;23498;50.958;3.124;2023-05-10T11:53:49;12.57;;;6.43;;
37655;SDS011;23498;50.958;3.124;2023-05-10T11:56:15;12.35;;;6.90;;
37655;SDS011;23498;50.958;3.124;2023-05-10T11:58:41;11.07;;;6.85;;
37655;SDS011;23498;50.958;3.124;2023-05-10T12:01:07;14.20;;;6.47;;
37655;SDS011;23498;50.958;3.124;2023-05-10T12:03:35;10.45;;;5.47;;
37655;SDS011;23498;50.958;3.124;2023-05-10T12:06:01;15.18;;;5.95;;
37655;SDS011;23498;50.958;3.124;2023-05-10T12:08:28;12.52;;;5.70;;
37655;SDS011;23498;50.958;3.124;2023-05-10T12:11:03;9.45;;;4.47;;
37655;SDS011;23498;50.958;3.124;2023-05-10T12:13:30;11.63;;;4.70;;
37655;SDS011;23498;50.958;3.124;2023-05-10T12:15:59;11.57;;;4.63;;
37655;SDS011;23498;50.958;3.124;2023-05-10T12:18:25;9.98;;;3.88;;
37655;SDS011;23498;50.958;3.124;2023-05-10T12:20:52;9.10;;;4.68;;
37655;SDS011;23498;50.958;3.124;2023-05-10T12:23:21;7.45;;;3.55;;
37655;SDS011;23498;50.958;3.124;2023-05-10T12:25:47;8.38;;;3.15;;
37655;SDS011;23498;50.958;3.124;2023-05-10T12:28:13;8.27;;;3.53;;
37655;SDS011;23498;50.958;3.124;2023-05-10T12:30:39;9.15;;;3.50;;
37655;SDS011;23498;50.958;3.124;2023-05-10T12:33:09;10.88;;;3.78;;
37655;SDS011;23498;50.958;3.124;2023-05-10T12:35:45;8.25;;;3.00;;
37655;SDS011;23498;50.958;3.124;2023-05-10T12:40:57;9.02;;;2.97;;
37655;SDS011;23498;50.958;3.124;2023-05-10T12:43:23;11.75;;;3.78;;
37655;SDS011;23498;50.958;3.124;2023-05-10T12:45:50;12.48;;;4.25;;
37655;SDS011;23498;50.958;3.124;2023-05-10T12:48:16;14.93;;;5.07;;
37655;SDS011;23498;50.958;3.124;2023-05-10T12:50:42;11.80;;;4.28;;
37655;SDS011;23498;50.958;3.124;2023-05-10T12:53:08;13.10;;;4.65;;
37655;SDS011;23498;50.958;3.124;2023-05-10T12:55:34;11.05;;;4.20;;
37655;SDS011;23498;50.958;3.124;2023-05-10T12:58:00;7.18;;;3.47;;
37655;SDS011;23498;50.958;3.124;2023-05-10T13:00:26;11.25;;;3.08;;
37655;SDS011;23498;50.958;3.124;2023-05-10T13:02:52;6.80;;;2.42;;
37655;SDS011;23498;50.958;3.124;2023-05-10T13:05:18;10.15;;;3.55;;
37655;SDS011;23498;50.958;3.124;2023-05-10T13:07:44;9.80;;;4.00;;
37655;SDS011;23498;50.958;3.124;2023-05-10T13:10:10;9.18;;;3.28;;
37655;SDS011;23498;50.958;3.124;2023-05-10T13:12:36;10.13;;;3.58;;
37655;SDS011;23498;50.958;3.124;2023-05-10T13:15:02;11.93;;;3.80;;
37655;SDS011;23498;50.958;3.124;2023-05-10T13:17:29;11.85;;;3.58;;
37655;SDS011;23498;50.958;3.124;2023-05-10T13:19:55;8.25;;;3.08;;
37655;SDS011;23498;50.958;3.124;2023-05-10T13:22:21;9.02;;;3.28;;
37655;SDS011;23498;50.958;3.124;2023-05-10T13:24:47;9.35;;;3.78;;
37655;SDS011;23498;50.958;3.124;2023-05-10T13:27:13;10.27;;;4.13;;
37655;SDS011;23498;50.958;3.124;2023-05-10T13:29:39;8.25;;;3.33;;
37655;SDS011;23498;50.958;3.124;2023-05-10T13:32:05;8.32;;;3.15;;
37655;SDS011;23498;50.958;3.124;2023-05-10T13:34:31;7.90;;;3.33;;
37655;SDS011;23498;50.958;3.124;2023-05-10T13:36:57;7.85;;;2.83;;
37655;SDS011;23498;50.958;3.124;2023-05-10T13:39:23;8.52;;;3.10;;
37655;SDS011;23498;50.958;3.124;2023-05-10T13:41:49;10.27;;;4.35;;
37655;SDS011;23498;50.958;3.124;2023-05-10T13:44:15;7.13;;;3.80;;
37655;SDS011;23498;50.958;3.124;2023-05-10T13:46:41;10.48;;;4.95;;
37655;SDS011;23498;50.958;3.124;2023-05-10T13:49:08;9.73;;;4.00;;
37655;SDS011;23498;50.958;3.124;2023-05-10T13:51:34;11.82;;;4.38;;
37655;SDS011;23498;50.958;3.124;2023-05-10T13:54:01;11.98;;;4.20;;
37655;SDS011;23498;50.958;3.124;2023-05-10T13:56:28;10.10;;;4.03;;
37655;SDS011;23498;50.958;3.124;2023-05-10T13:58:54;9.95;;;4.18;;
37655;SDS011;23498;50.958;3.124;2023-05-10T14:01:20;12.10;;;3.70;;
37655;SDS011;23498;50.958;3.124;2023-05-10T14:03:46;10.15;;;3.60;;
37655;SDS011;23498;50.958;3.124;2023-05-10T14:06:17;10.43;;;3.80;;
37655;SDS011;23498;50.958;3.124;2023-05-10T14:08:52;10.85;;;3.80;;
37655;SDS011;23498;50.958;3.124;2023-05-10T14:11:18;9.20;;;3.00;;
37655;SDS011;23498;50.958;3.124;2023-05-10T14:13:45;10.98;;;2.90;;
37655;SDS011;23498;50.958;3.124;2023-05-10T14:16:11;8.30;;;2.90;;
37655;SDS011;23498;50.958;3.124;2023-05-10T14:18:38;9.55;;;3.25;;
37655;SDS011;23498;50.958;3.124;2023-05-10T14:21:04;12.15;;;3.42;;
37655;SDS011;23498;50.958;3.124;2023-05-10T14:23:30;10.70;;;3.58;;
37655;SDS011;23498;50.958;3.124;2023-05-10T14:25:56;9.35;;;3.83;;
37655;SDS011;23498;50.958;3.124;2023-05-10T14:28:22;9.65;;;3.17;;
37655;SDS011;23498;50.958;3.124;2023-05-10T14:30:49;9.80;;;2.88;;
37655;SDS011;23498;50.958;3.124;2023-05-10T14:33:16;9.85;;;2.65;;
37655;SDS011;23498;50.958;3.124;2023-05-10T14:35:42;7.43;;;2.80;;
37655;SDS011;23498;50.958;3.124;2023-05-10T14:38:08;9.18;;;2.80;;
37655;SDS011;23498;50.958;3.124;2023-05-10T14:40:35;8.23;;;2.78;;
37655;SDS011;23498;50.958;3.124;2023-05-10T14:43:01;6.38;;;2.28;;
37655;SDS011;23498;50.958;3.124;2023-05-10T14:45:28;6.13;;;2.00;;
37655;SDS011;23498;50.958;3.124;2023-05-10T14:47:54;6.03;;;2.35;;
37655;SDS011;23498;50.958;3.124;2023-05-10T14:50:20;6.65;;;2.45;;
37655;SDS011;23498;50.958;3.124;2023-05-10T14:52:46;10.00;;;2.97;;
37655;SDS011;23498;50.958;3.124;2023-05-10T14:55:12;10.55;;;2.60;;
37655;SDS011;23498;50.958;3.124;2023-05-10T14:57:38;8.57;;;2.30;;
37655;SDS011;23498;50.958;3.124;2023-05-10T15:00:04;7.68;;;2.60;;
37655;SDS011;23498;50.958;3.124;2023-05-10T15:02:31;10.90;;;2.88;;
37655;SDS011;23498;50.958;3.124;2023-05-10T15:04:57;8.65;;;2.17;;
37655;SDS011;23498;50.958;3.124;2023-05-10T15:07:23;7.82;;;2.10;;